sensor_id;sensor_type;location;lat;lon;timestamp;P1;durP1;ratioP1;P2;durP2;ratioP2
15502;SDS011;7853;52.186;5.948;2023-02-28T00:03:10;10.53;;;6.00;;
15502;SDS011;7853;52.186;5.948;2023-02-28T00:03:10;10.97;;;5.73;;
15502;SDS011;7853;52.186;5.948;2023-02-28T00:03:10;13.79;;;6.90;;
15502;SDS011;7853;52.186;5.948;2023-02-28T00:03:47;10.67;;;5.68;;
15502;SDS011;7853;52.186;5.948;2023-02-28T00:04:40;11.82;;;6.28;;
15502;SDS011;7853;52.186;5.948;2023-02-28T00:05:36;10.25;;;5.52;;
15502;SDS011;7853;52.186;5.948;2023-02-28T00:06:34;10.29;;;5.80;;
15502;SDS011;7853;52.186;5.948;2023-02-28T00:07:33;10.98;;;5.86;;
15502;SDS011;7853;52.186;5.948;2023-02-28T00:08:33;11.24;;;6.16;;
15502;SDS011;7853;52.186;5.948;2023-02-28T00:09:33;10.71;;;5.69;;
15502;SDS011;7853;52.186;5.948;2023-02-28T00:10:33;9.98;;;5.37;;
15502;SDS011;7853;52.186;5.948;2023-02-28T00:11:32;9.56;;;5.26;;
15502;SDS011;7853;52.186;5.948;2023-02-28T00:12:33;11.48;;;5.77;;
15502;SDS011;7853;52.186;5.948;2023-02-28T00:13:33;11.46;;;5.86;;
15502;SDS011;7853;52.186;5.948;2023-02-28T00:14:33;11.09;;;5.90;;
15502;SDS011;7853;52.186;5.948;2023-02-28T00:15:33;9.59;;;5.17;;
15502;SDS011;7853;52.186;5.948;2023-02-28T00:16:33;9.12;;;5.18;;
15502;SDS011;7853;52.186;5.948;2023-02-28T00:17:33;7.94;;;5.04;;
15502;SDS011;7853;52.186;5.948;2023-02-28T00:18:33;8.93;;;4.91;;
15502;SDS011;7853;52.186;5.948;2023-02-28T00:19:33;9.59;;;5.31;;
15502;SDS011;7853;52.186;5.948;2023-02-28T00:20:33;10.29;;;5.11;;
15502;SDS011;7853;52.186;5.948;2023-02-28T00:21:33;10.12;;;5.08;;
15502;SDS011;7853;52.186;5.948;2023-02-28T00:22:33;9.48;;;5.21;;
15502;SDS011;7853;52.186;5.948;2023-02-28T00:23:33;8.29;;;4.89;;
15502;SDS011;7853;52.186;5.948;2023-02-28T00:24:33;8.13;;;4.75;;
15502;SDS011;7853;52.186;5.948;2023-02-28T00:25:33;10.72;;;5.16;;
15502;SDS011;7853;52.186;5.948;2023-02-28T00:26:33;9.59;;;5.11;;
15502;SDS011;7853;52.186;5.948;2023-02-28T00:27:34;10.12;;;5.01;;
15502;SDS011;7853;52.186;5.948;2023-02-28T00:28:34;9.17;;;4.88;;
15502;SDS011;7853;52.186;5.948;2023-02-28T00:29:34;8.47;;;4.53;;
15502;SDS011;7853;52.186;5.948;2023-02-28T00:30:34;8.37;;;4.50;;
15502;SDS011;7853;52.186;5.948;2023-02-28T00:31:34;8.74;;;4.63;;
15502;SDS011;7853;52.186;5.948;2023-02-28T00:32:34;7.99;;;4.63;;
15502;SDS011;7853;52.186;5.948;2023-02-28T00:33:34;7.94;;;4.72;;
15502;SDS011;7853;52.186;5.948;2023-02-28T00:34:34;8.74;;;4.54;;
15502;SDS011;7853;52.186;5.948;2023-02-28T00:35:34;8.89;;;4.51;;
15502;SDS011;7853;52.186;5.948;2023-02-28T00:36:34;7.15;;;4.27;;
15502;SDS011;7853;52.186;5.948;2023-02-28T00:37:34;8.38;;;4.40;;
15502;SDS011;7853;52.186;5.948;2023-02-28T00:38:34;8.93;;;4.46;;
15502;SDS011;7853;52.186;5.948;2023-02-28T00:39:35;7.46;;;4.31;;
15502;SDS011;7853;52.186;5.948;2023-02-28T00:40:34;6.44;;;4.27;;
15502;SDS011;7853;52.186;5.948;2023-02-28T00:41:34;9.30;;;4.45;;
15502;SDS011;7853;52.186;5.948;2023-02-28T00:42:34;7.57;;;4.62;;
15502;SDS011;7853;52.186;5.948;2023-02-28T00:43:35;7.61;;;4.45;;
15502;SDS011;7853;52.186;5.948;2023-02-28T00:44:34;7.51;;;4.24;;
15502;SDS011;7853;52.186;5.948;2023-02-28T00:45:34;9.43;;;4.67;;
15502;SDS011;7853;52.186;5.948;2023-02-28T00:46:34;7.12;;;4.41;;
15502;SDS011;7853;52.186;5.948;2023-02-28T00:47:34;7.75;;;4.18;;
15502;SDS011;7853;52.186;5.948;2023-02-28T00:48:34;7.79;;;4.13;;
15502;SDS011;7853;52.186;5.948;2023-02-28T00:49:34;8.10;;;4.47;;
15502;SDS011;7853;52.186;5.948;2023-02-28T00:50:34;8.13;;;4.29;;
15502;SDS011;7853;52.186;5.948;2023-02-28T00:51:34;8.38;;;4.34;;
15502;SDS011;7853;52.186;5.948;2023-02-28T00:52:34;6.77;;;3.84;;
15502;SDS011;7853;52.186;5.948;2023-02-28T00:53:34;8.82;;;4.37;;
15502;SDS011;7853;52.186;5.948;2023-02-28T00:54:34;7.95;;;4.34;;
15502;SDS011;7853;52.186;5.948;2023-02-28T00:55:34;6.44;;;4.00;;
15502;SDS011;7853;52.186;5.948;2023-02-28T00:56:34;8.12;;;4.23;;
15502;SDS011;7853;52.186;5.948;2023-02-28T00:57:34;6.98;;;4.13;;
15502;SDS011;7853;52.186;5.948;2023-02-28T00:58:34;6.75;;;4.16;;
15502;SDS011;7853;52.186;5.948;2023-02-28T00:59:34;6.91;;;4.22;;
15502;SDS011;7853;52.186;5.948;2023-02-28T01:00:35;7.35;;;4.26;;
15502;SDS011;7853;52.186;5.948;2023-02-28T01:01:34;9.26;;;4.72;;
15502;SDS011;7853;52.186;5.948;2023-02-28T01:02:34;7.64;;;4.36;;
15502;SDS011;7853;52.186;5.948;2023-02-28T01:03:34;7.64;;;4.63;;
15502;SDS011;7853;52.186;5.948;2023-02-28T01:04:34;8.74;;;4.77;;
15502;SDS011;7853;52.186;5.948;2023-02-28T01:05:34;9.66;;;4.72;;
15502;SDS011;7853;52.186;5.948;2023-02-28T01:06:34;8.15;;;4.61;;
15502;SDS011;7853;52.186;5.948;2023-02-28T01:07:34;7.46;;;4.67;;
15502;SDS011;7853;52.186;5.948;2023-02-28T01:08:34;9.41;;;5.34;;
15502;SDS011;7853;52.186;5.948;2023-02-28T01:09:35;7.16;;;4.44;;
15502;SDS011;7853;52.186;5.948;2023-02-28T01:10:34;8.07;;;4.85;;
15502;SDS011;7853;52.186;5.948;2023-02-28T01:11:35;8.03;;;4.77;;
15502;SDS011;7853;52.186;5.948;2023-02-28T01:12:34;7.07;;;4.43;;
15502;SDS011;7853;52.186;5.948;2023-02-28T01:13:34;8.34;;;4.54;;
15502;SDS011;7853;52.186;5.948;2023-02-28T01:14:35;7.94;;;4.17;;
15502;SDS011;7853;52.186;5.948;2023-02-28T01:15:35;8.07;;;4.09;;
15502;SDS011;7853;52.186;5.948;2023-02-28T01:16:34;7.45;;;4.19;;
15502;SDS011;7853;52.186;5.948;2023-02-28T01:17:35;6.92;;;4.21;;
15502;SDS011;7853;52.186;5.948;2023-02-28T01:18:35;7.46;;;4.34;;
15502;SDS011;7853;52.186;5.948;2023-02-28T01:19:34;7.83;;;4.56;;
15502;SDS011;7853;52.186;5.948;2023-02-28T01:20:35;7.60;;;4.40;;
15502;SDS011;7853;52.186;5.948;2023-02-28T01:21:35;8.02;;;4.43;;
15502;SDS011;7853;52.186;5.948;2023-02-28T01:22:34;6.82;;;4.41;;
15502;SDS011;7853;52.186;5.948;2023-02-28T01:23:34;7.82;;;4.63;;
15502;SDS011;7853;52.186;5.948;2023-02-28T01:24:34;7.20;;;4.28;;
15502;SDS011;7853;52.186;5.948;2023-02-28T01:25:35;7.77;;;4.37;;
15502;SDS011;7853;52.186;5.948;2023-02-28T01:26:35;7.35;;;4.42;;
15502;SDS011;7853;52.186;5.948;2023-02-28T01:27:35;7.77;;;4.32;;
15502;SDS011;7853;52.186;5.948;2023-02-28T01:28:34;7.66;;;4.28;;
15502;SDS011;7853;52.186;5.948;2023-02-28T01:29:34;6.78;;;4.43;;
15502;SDS011;7853;52.186;5.948;2023-02-28T01:30:34;6.75;;;4.22;;
15502;SDS011;7853;52.186;5.948;2023-02-28T01:31:34;6.59;;;4.03;;
15502;SDS011;7853;52.186;5.948;2023-02-28T01:32:34;6.26;;;3.99;;
15502;SDS011;7853;52.186;5.948;2023-02-28T01:33:35;5.72;;;3.73;;
15502;SDS011;7853;52.186;5.948;2023-02-28T01:34:35;6.98;;;4.43;;
15502;SDS011;7853;52.186;5.948;2023-02-28T01:35:35;6.63;;;4.00;;
15502;SDS011;7853;52.186;5.948;2023-02-28T01:36:35;6.40;;;3.88;;
15502;SDS011;7853;52.186;5.948;2023-02-28T01:37:35;5.75;;;3.93;;
15502;SDS011;7853;52.186;5.948;2023-02-28T01:38:34;6.84;;;3.69;;
15502;SDS011;7853;52.186;5.948;2023-02-28T01:39:35;6.24;;;3.92;;
15502;SDS011;7853;52.186;5.948;2023-02-28T01:40:35;5.19;;;3.68;;
15502;SDS011;7853;52.186;5.948;2023-02-28T01:41:34;6.32;;;3.75;;
15502;SDS011;7853;52.186;5.948;2023-02-28T01:42:34;5.62;;;3.75;;
15502;SDS011;7853;52.186;5.948;2023-02-28T01:43:52;4.98;;;3.27;;
15502;SDS011;7853;52.186;5.948;2023-02-28T01:44:57;5.96;;;3.45;;
15502;SDS011;7853;52.186;5.948;2023-02-28T01:46:00;5.55;;;3.46;;
15502;SDS011;7853;52.186;5.948;2023-02-28T01:46:47;4.98;;;3.22;;
15502;SDS011;7853;52.186;5.948;2023-02-28T01:47:40;5.05;;;3.20;;
15502;SDS011;7853;52.186;5.948;2023-02-28T01:48:37;5.55;;;3.25;;
15502;SDS011;7853;52.186;5.948;2023-02-28T01:49:34;4.89;;;3.28;;
15502;SDS011;7853;52.186;5.948;2023-02-28T01:50:34;4.72;;;3.23;;
15502;SDS011;7853;52.186;5.948;2023-02-28T01:51:34;6.28;;;3.33;;
15502;SDS011;7853;52.186;5.948;2023-02-28T01:52:33;5.16;;;3.15;;
15502;SDS011;7853;52.186;5.948;2023-02-28T01:53:34;5.32;;;3.13;;
15502;SDS011;7853;52.186;5.948;2023-02-28T01:54:33;5.84;;;3.30;;
15502;SDS011;7853;52.186;5.948;2023-02-28T01:55:32;5.40;;;3.39;;
15502;SDS011;7853;52.186;5.948;2023-02-28T01:56:33;5.41;;;3.30;;
15502;SDS011;7853;52.186;5.948;2023-02-28T01:57:34;4.70;;;3.25;;
15502;SDS011;7853;52.186;5.948;2023-02-28T01:58:33;6.21;;;3.12;;
15502;SDS011;7853;52.186;5.948;2023-02-28T01:59:34;4.38;;;2.92;;
15502;SDS011;7853;52.186;5.948;2023-02-28T02:00:33;5.01;;;3.12;;
15502;SDS011;7853;52.186;5.948;2023-02-28T02:01:33;4.91;;;3.00;;
15502;SDS011;7853;52.186;5.948;2023-02-28T02:02:33;4.01;;;3.01;;
15502;SDS011;7853;52.186;5.948;2023-02-28T02:03:33;5.34;;;3.14;;
15502;SDS011;7853;52.186;5.948;2023-02-28T02:04:35;6.09;;;3.30;;
15502;SDS011;7853;52.186;5.948;2023-02-28T02:05:34;5.30;;;3.10;;
15502;SDS011;7853;52.186;5.948;2023-02-28T02:06:35;5.14;;;3.27;;
15502;SDS011;7853;52.186;5.948;2023-02-28T02:07:35;5.76;;;3.07;;
15502;SDS011;7853;52.186;5.948;2023-02-28T02:08:33;4.74;;;2.96;;
15502;SDS011;7853;52.186;5.948;2023-02-28T02:09:34;4.68;;;3.05;;
15502;SDS011;7853;52.186;5.948;2023-02-28T02:10:35;5.11;;;3.19;;
15502;SDS011;7853;52.186;5.948;2023-02-28T02:11:34;4.21;;;2.95;;
15502;SDS011;7853;52.186;5.948;2023-02-28T02:12:38;5.31;;;3.18;;
15502;SDS011;7853;52.186;5.948;2023-02-28T02:13:51;5.18;;;3.04;;
15502;SDS011;7853;52.186;5.948;2023-02-28T02:14:43;6.06;;;3.10;;
15502;SDS011;7853;52.186;5.948;2023-02-28T02:15:38;5.02;;;3.20;;
15502;SDS011;7853;52.186;5.948;2023-02-28T02:16:37;5.14;;;3.19;;
15502;SDS011;7853;52.186;5.948;2023-02-28T02:17:35;5.44;;;3.07;;
15502;SDS011;7853;52.186;5.948;2023-02-28T02:18:34;5.41;;;3.18;;
15502;SDS011;7853;52.186;5.948;2023-02-28T02:19:44;5.39;;;3.33;;
15502;SDS011;7853;52.186;5.948;2023-02-28T02:20:51;5.58;;;3.24;;
15502;SDS011;7853;52.186;5.948;2023-02-28T02:22:03;4.65;;;3.00;;
15502;SDS011;7853;52.186;5.948;2023-02-28T02:23:18;4.82;;;3.29;;
15502;SDS011;7853;52.186;5.948;2023-02-28T02:24:36;4.85;;;3.27;;
15502;SDS011;7853;52.186;5.948;2023-02-28T02:25:39;4.59;;;3.18;;
15502;SDS011;7853;52.186;5.948;2023-02-28T02:26:41;5.05;;;3.45;;
15502;SDS011;7853;52.186;5.948;2023-02-28T02:27:38;4.97;;;3.13;;
15502;SDS011;7853;52.186;5.948;2023-02-28T02:28:37;5.39;;;3.35;;
15502;SDS011;7853;52.186;5.948;2023-02-28T02:29:40;4.75;;;3.13;;
15502;SDS011;7853;52.186;5.948;2023-02-28T02:30:37;5.11;;;3.23;;
15502;SDS011;7853;52.186;5.948;2023-02-28T02:31:37;6.45;;;3.50;;
15502;SDS011;7853;52.186;5.948;2023-02-28T02:32:53;4.72;;;3.27;;
15502;SDS011;7853;52.186;5.948;2023-02-28T02:34:02;5.93;;;3.49;;
15502;SDS011;7853;52.186;5.948;2023-02-28T02:34:54;5.23;;;3.54;;
15502;SDS011;7853;52.186;5.948;2023-02-28T02:35:58;5.59;;;3.63;;
15502;SDS011;7853;52.186;5.948;2023-02-28T02:36:45;5.85;;;3.63;;
15502;SDS011;7853;52.186;5.948;2023-02-28T02:37:37;6.05;;;3.43;;
15502;SDS011;7853;52.186;5.948;2023-02-28T02:38:33;5.22;;;3.34;;
15502;SDS011;7853;52.186;5.948;2023-02-28T02:39:32;6.01;;;3.46;;
15502;SDS011;7853;52.186;5.948;2023-02-28T02:40:32;5.58;;;3.50;;
15502;SDS011;7853;52.186;5.948;2023-02-28T02:41:32;6.27;;;3.73;;
15502;SDS011;7853;52.186;5.948;2023-02-28T02:42:32;6.07;;;3.67;;
15502;SDS011;7853;52.186;5.948;2023-02-28T02:43:32;6.51;;;3.92;;
15502;SDS011;7853;52.186;5.948;2023-02-28T02:44:31;6.12;;;3.67;;
15502;SDS011;7853;52.186;5.948;2023-02-28T02:45:31;5.70;;;3.48;;
15502;SDS011;7853;52.186;5.948;2023-02-28T02:46:32;5.58;;;3.54;;
15502;SDS011;7853;52.186;5.948;2023-02-28T02:47:31;5.66;;;3.62;;
15502;SDS011;7853;52.186;5.948;2023-02-28T02:48:32;5.24;;;3.15;;
15502;SDS011;7853;52.186;5.948;2023-02-28T02:49:32;4.80;;;3.57;;
15502;SDS011;7853;52.186;5.948;2023-02-28T02:50:33;6.57;;;4.05;;
15502;SDS011;7853;52.186;5.948;2023-02-28T02:51:31;6.12;;;3.74;;
15502;SDS011;7853;52.186;5.948;2023-02-28T02:52:34;5.02;;;3.49;;
15502;SDS011;7853;52.186;5.948;2023-02-28T02:53:32;5.01;;;3.57;;
15502;SDS011;7853;52.186;5.948;2023-02-28T02:54:32;5.25;;;3.67;;
15502;SDS011;7853;52.186;5.948;2023-02-28T02:55:32;5.61;;;3.61;;
15502;SDS011;7853;52.186;5.948;2023-02-28T02:56:32;5.46;;;3.62;;
15502;SDS011;7853;52.186;5.948;2023-02-28T02:57:33;6.44;;;3.63;;
15502;SDS011;7853;52.186;5.948;2023-02-28T02:58:33;5.36;;;3.67;;
15502;SDS011;7853;52.186;5.948;2023-02-28T02:59:32;5.59;;;3.52;;
15502;SDS011;7853;52.186;5.948;2023-02-28T03:00:34;5.41;;;3.48;;
15502;SDS011;7853;52.186;5.948;2023-02-28T03:01:32;5.48;;;3.38;;
15502;SDS011;7853;52.186;5.948;2023-02-28T03:02:32;4.43;;;3.23;;
15502;SDS011;7853;52.186;5.948;2023-02-28T03:03:32;5.24;;;3.34;;
15502;SDS011;7853;52.186;5.948;2023-02-28T03:04:34;4.95;;;3.26;;
15502;SDS011;7853;52.186;5.948;2023-02-28T03:05:34;5.44;;;3.10;;
15502;SDS011;7853;52.186;5.948;2023-02-28T03:06:33;4.95;;;3.12;;
15502;SDS011;7853;52.186;5.948;2023-02-28T03:07:33;5.32;;;3.30;;
15502;SDS011;7853;52.186;5.948;2023-02-28T03:08:34;4.45;;;3.21;;
15502;SDS011;7853;52.186;5.948;2023-02-28T03:09:33;5.07;;;3.09;;
15502;SDS011;7853;52.186;5.948;2023-02-28T03:10:35;4.72;;;3.05;;
15502;SDS011;7853;52.186;5.948;2023-02-28T03:11:34;4.80;;;3.38;;
15502;SDS011;7853;52.186;5.948;2023-02-28T03:12:39;4.39;;;3.05;;
15502;SDS011;7853;52.186;5.948;2023-02-28T03:13:42;4.02;;;2.86;;
15502;SDS011;7853;52.186;5.948;2023-02-28T03:14:38;4.64;;;2.95;;
15502;SDS011;7853;52.186;5.948;2023-02-28T03:15:35;3.98;;;2.72;;
15502;SDS011;7853;52.186;5.948;2023-02-28T03:16:35;4.89;;;3.01;;
15502;SDS011;7853;52.186;5.948;2023-02-28T03:17:38;4.31;;;2.91;;
15502;SDS011;7853;52.186;5.948;2023-02-28T03:18:48;4.51;;;2.92;;
15502;SDS011;7853;52.186;5.948;2023-02-28T03:19:44;4.70;;;2.88;;
15502;SDS011;7853;52.186;5.948;2023-02-28T03:20:38;4.11;;;2.69;;
15502;SDS011;7853;52.186;5.948;2023-02-28T03:21:36;4.36;;;2.63;;
15502;SDS011;7853;52.186;5.948;2023-02-28T03:22:39;4.96;;;2.85;;
15502;SDS011;7853;52.186;5.948;2023-02-28T03:23:35;4.39;;;2.60;;
15502;SDS011;7853;52.186;5.948;2023-02-28T03:24:34;4.57;;;2.98;;
15502;SDS011;7853;52.186;5.948;2023-02-28T03:25:35;4.68;;;3.10;;
15502;SDS011;7853;52.186;5.948;2023-02-28T03:26:34;4.70;;;2.87;;
15502;SDS011;7853;52.186;5.948;2023-02-28T03:27:34;4.65;;;3.03;;
15502;SDS011;7853;52.186;5.948;2023-02-28T03:28:35;5.09;;;2.82;;
15502;SDS011;7853;52.186;5.948;2023-02-28T03:29:34;4.42;;;2.93;;
15502;SDS011;7853;52.186;5.948;2023-02-28T03:30:35;3.90;;;2.71;;
15502;SDS011;7853;52.186;5.948;2023-02-28T03:31:35;4.64;;;2.92;;
15502;SDS011;7853;52.186;5.948;2023-02-28T03:32:34;4.12;;;2.78;;
15502;SDS011;7853;52.186;5.948;2023-02-28T03:33:34;3.38;;;2.65;;
15502;SDS011;7853;52.186;5.948;2023-02-28T03:34:34;3.63;;;2.64;;
15502;SDS011;7853;52.186;5.948;2023-02-28T03:35:34;3.42;;;2.49;;
15502;SDS011;7853;52.186;5.948;2023-02-28T03:36:35;4.85;;;2.66;;
15502;SDS011;7853;52.186;5.948;2023-02-28T03:37:34;5.29;;;2.79;;
15502;SDS011;7853;52.186;5.948;2023-02-28T03:38:34;4.06;;;2.59;;
15502;SDS011;7853;52.186;5.948;2023-02-28T03:39:35;3.74;;;2.68;;
15502;SDS011;7853;52.186;5.948;2023-02-28T03:40:34;4.82;;;2.73;;
15502;SDS011;7853;52.186;5.948;2023-02-28T03:41:35;5.01;;;2.83;;
15502;SDS011;7853;52.186;5.948;2023-02-28T03:42:35;4.01;;;2.66;;
15502;SDS011;7853;52.186;5.948;2023-02-28T03:43:34;3.58;;;2.58;;
15502;SDS011;7853;52.186;5.948;2023-02-28T03:44:34;3.90;;;2.68;;
15502;SDS011;7853;52.186;5.948;2023-02-28T03:45:35;3.97;;;2.86;;
15502;SDS011;7853;52.186;5.948;2023-02-28T03:46:35;4.19;;;2.83;;
15502;SDS011;7853;52.186;5.948;2023-02-28T03:47:35;4.42;;;2.80;;
15502;SDS011;7853;52.186;5.948;2023-02-28T03:48:35;5.15;;;2.91;;
15502;SDS011;7853;52.186;5.948;2023-02-28T03:49:35;5.15;;;2.75;;
15502;SDS011;7853;52.186;5.948;2023-02-28T03:50:34;3.99;;;2.87;;
15502;SDS011;7853;52.186;5.948;2023-02-28T03:51:34;5.00;;;2.92;;
15502;SDS011;7853;52.186;5.948;2023-02-28T03:52:35;3.95;;;2.67;;
15502;SDS011;7853;52.186;5.948;2023-02-28T03:53:35;4.10;;;3.08;;
15502;SDS011;7853;52.186;5.948;2023-02-28T03:54:35;4.33;;;2.82;;
15502;SDS011;7853;52.186;5.948;2023-02-28T03:55:35;3.98;;;2.91;;
15502;SDS011;7853;52.186;5.948;2023-02-28T03:56:37;3.55;;;2.57;;
15502;SDS011;7853;52.186;5.948;2023-02-28T03:57:35;4.30;;;2.79;;
15502;SDS011;7853;52.186;5.948;2023-02-28T03:58:36;3.54;;;2.59;;
15502;SDS011;7853;52.186;5.948;2023-02-28T03:59:36;4.03;;;2.66;;
15502;SDS011;7853;52.186;5.948;2023-02-28T04:00:35;4.10;;;2.64;;
15502;SDS011;7853;52.186;5.948;2023-02-28T04:01:35;4.83;;;2.96;;
15502;SDS011;7853;52.186;5.948;2023-02-28T04:02:34;3.58;;;2.50;;
15502;SDS011;7853;52.186;5.948;2023-02-28T04:03:36;4.75;;;2.62;;
15502;SDS011;7853;52.186;5.948;2023-02-28T04:04:34;3.70;;;2.36;;
15502;SDS011;7853;52.186;5.948;2023-02-28T04:05:39;3.81;;;2.39;;
15502;SDS011;7853;52.186;5.948;2023-02-28T04:06:49;3.62;;;2.32;;
15502;SDS011;7853;52.186;5.948;2023-02-28T04:07:40;4.38;;;2.45;;
15502;SDS011;7853;52.186;5.948;2023-02-28T04:08:37;4.02;;;2.68;;
15502;SDS011;7853;52.186;5.948;2023-02-28T04:09:35;3.44;;;2.52;;
15502;SDS011;7853;52.186;5.948;2023-02-28T04:10:34;4.25;;;2.58;;
15502;SDS011;7853;52.186;5.948;2023-02-28T04:11:35;3.45;;;2.62;;
15502;SDS011;7853;52.186;5.948;2023-02-28T04:12:34;3.49;;;2.59;;
15502;SDS011;7853;52.186;5.948;2023-02-28T04:13:34;3.55;;;2.44;;
15502;SDS011;7853;52.186;5.948;2023-02-28T04:14:34;3.53;;;2.53;;
15502;SDS011;7853;52.186;5.948;2023-02-28T04:15:34;3.86;;;2.58;;
15502;SDS011;7853;52.186;5.948;2023-02-28T04:16:34;3.07;;;2.32;;
15502;SDS011;7853;52.186;5.948;2023-02-28T04:17:34;3.96;;;2.53;;
15502;SDS011;7853;52.186;5.948;2023-02-28T04:18:34;4.20;;;2.32;;
15502;SDS011;7853;52.186;5.948;2023-02-28T04:19:34;3.86;;;2.47;;
15502;SDS011;7853;52.186;5.948;2023-02-28T04:20:34;3.45;;;2.53;;
15502;SDS011;7853;52.186;5.948;2023-02-28T04:21:35;3.92;;;2.59;;
15502;SDS011;7853;52.186;5.948;2023-02-28T04:22:34;3.30;;;2.49;;
15502;SDS011;7853;52.186;5.948;2023-02-28T04:23:34;3.97;;;2.53;;
15502;SDS011;7853;52.186;5.948;2023-02-28T04:24:35;3.26;;;2.29;;
15502;SDS011;7853;52.186;5.948;2023-02-28T04:25:34;4.16;;;2.54;;
15502;SDS011;7853;52.186;5.948;2023-02-28T04:26:34;3.74;;;2.40;;
15502;SDS011;7853;52.186;5.948;2023-02-28T04:27:34;3.45;;;2.31;;
15502;SDS011;7853;52.186;5.948;2023-02-28T04:28:34;3.64;;;2.59;;
15502;SDS011;7853;52.186;5.948;2023-02-28T04:29:34;3.25;;;2.41;;
15502;SDS011;7853;52.186;5.948;2023-02-28T04:30:34;3.63;;;2.39;;
15502;SDS011;7853;52.186;5.948;2023-02-28T04:31:34;3.58;;;2.46;;
15502;SDS011;7853;52.186;5.948;2023-02-28T04:32:34;3.97;;;2.61;;
15502;SDS011;7853;52.186;5.948;2023-02-28T04:33:34;3.65;;;2.38;;
15502;SDS011;7853;52.186;5.948;2023-02-28T04:34:34;3.11;;;2.22;;
15502;SDS011;7853;52.186;5.948;2023-02-28T04:35:34;3.62;;;2.41;;
15502;SDS011;7853;52.186;5.948;2023-02-28T04:36:34;3.74;;;2.62;;
15502;SDS011;7853;52.186;5.948;2023-02-28T04:37:34;3.85;;;2.34;;
15502;SDS011;7853;52.186;5.948;2023-02-28T04:38:35;3.62;;;2.39;;
15502;SDS011;7853;52.186;5.948;2023-02-28T04:39:35;3.61;;;2.39;;
15502;SDS011;7853;52.186;5.948;2023-02-28T04:40:35;3.33;;;2.40;;
15502;SDS011;7853;52.186;5.948;2023-02-28T04:41:34;3.61;;;2.28;;
15502;SDS011;7853;52.186;5.948;2023-02-28T04:42:34;3.27;;;2.14;;
15502;SDS011;7853;52.186;5.948;2023-02-28T04:43:34;3.40;;;2.26;;
15502;SDS011;7853;52.186;5.948;2023-02-28T04:44:34;3.02;;;2.17;;
15502;SDS011;7853;52.186;5.948;2023-02-28T04:45:34;3.23;;;2.31;;
15502;SDS011;7853;52.186;5.948;2023-02-28T04:46:34;3.81;;;2.39;;
15502;SDS011;7853;52.186;5.948;2023-02-28T04:47:34;3.41;;;2.34;;
15502;SDS011;7853;52.186;5.948;2023-02-28T04:48:35;3.27;;;2.35;;
15502;SDS011;7853;52.186;5.948;2023-02-28T04:49:34;3.21;;;2.49;;
15502;SDS011;7853;52.186;5.948;2023-02-28T04:50:35;3.53;;;2.16;;
15502;SDS011;7853;52.186;5.948;2023-02-28T04:51:34;3.92;;;2.42;;
15502;SDS011;7853;52.186;5.948;2023-02-28T04:52:34;2.51;;;2.14;;
15502;SDS011;7853;52.186;5.948;2023-02-28T04:53:35;3.00;;;2.42;;
15502;SDS011;7853;52.186;5.948;2023-02-28T04:54:34;3.59;;;2.23;;
15502;SDS011;7853;52.186;5.948;2023-02-28T04:55:34;3.32;;;2.37;;
15502;SDS011;7853;52.186;5.948;2023-02-28T04:56:34;3.20;;;2.38;;
15502;SDS011;7853;52.186;5.948;2023-02-28T04:57:35;3.03;;;2.31;;
15502;SDS011;7853;52.186;5.948;2023-02-28T04:58:34;3.31;;;2.31;;
15502;SDS011;7853;52.186;5.948;2023-02-28T04:59:34;3.17;;;2.22;;
15502;SDS011;7853;52.186;5.948;2023-02-28T05:00:34;3.22;;;2.44;;
15502;SDS011;7853;52.186;5.948;2023-02-28T05:01:34;3.39;;;2.36;;
15502;SDS011;7853;52.186;5.948;2023-02-28T05:02:35;4.45;;;2.29;;
15502;SDS011;7853;52.186;5.948;2023-02-28T05:03:34;3.83;;;2.18;;
15502;SDS011;7853;52.186;5.948;2023-02-28T05:04:35;3.84;;;2.45;;
15502;SDS011;7853;52.186;5.948;2023-02-28T05:05:34;2.90;;;2.23;;
15502;SDS011;7853;52.186;5.948;2023-02-28T05:06:34;3.83;;;2.41;;
15502;SDS011;7853;52.186;5.948;2023-02-28T05:07:34;3.06;;;2.11;;
15502;SDS011;7853;52.186;5.948;2023-02-28T05:08:34;3.61;;;2.44;;
15502;SDS011;7853;52.186;5.948;2023-02-28T05:09:34;3.82;;;2.31;;
15502;SDS011;7853;52.186;5.948;2023-02-28T05:10:34;3.51;;;2.39;;
15502;SDS011;7853;52.186;5.948;2023-02-28T05:11:35;4.00;;;2.40;;
15502;SDS011;7853;52.186;5.948;2023-02-28T05:12:35;3.42;;;2.33;;
15502;SDS011;7853;52.186;5.948;2023-02-28T05:13:34;3.19;;;2.46;;
15502;SDS011;7853;52.186;5.948;2023-02-28T05:14:34;3.56;;;2.48;;
15502;SDS011;7853;52.186;5.948;2023-02-28T05:15:34;3.06;;;2.20;;
15502;SDS011;7853;52.186;5.948;2023-02-28T05:16:34;3.33;;;2.35;;
15502;SDS011;7853;52.186;5.948;2023-02-28T05:17:35;3.72;;;2.29;;
15502;SDS011;7853;52.186;5.948;2023-02-28T05:18:35;3.56;;;2.27;;
15502;SDS011;7853;52.186;5.948;2023-02-28T05:19:34;3.32;;;2.32;;
15502;SDS011;7853;52.186;5.948;2023-02-28T05:20:35;3.33;;;2.23;;
15502;SDS011;7853;52.186;5.948;2023-02-28T05:21:35;2.98;;;1.95;;
15502;SDS011;7853;52.186;5.948;2023-02-28T05:22:34;3.76;;;2.18;;
15502;SDS011;7853;52.186;5.948;2023-02-28T05:23:34;3.12;;;2.26;;
15502;SDS011;7853;52.186;5.948;2023-02-28T05:24:34;2.95;;;2.15;;
15502;SDS011;7853;52.186;5.948;2023-02-28T05:25:34;3.99;;;2.29;;
15502;SDS011;7853;52.186;5.948;2023-02-28T05:26:35;4.02;;;2.41;;
15502;SDS011;7853;52.186;5.948;2023-02-28T05:27:35;2.99;;;2.33;;
15502;SDS011;7853;52.186;5.948;2023-02-28T05:28:35;3.20;;;2.28;;
15502;SDS011;7853;52.186;5.948;2023-02-28T05:29:34;3.01;;;2.31;;
15502;SDS011;7853;52.186;5.948;2023-02-28T05:30:34;2.76;;;2.05;;
15502;SDS011;7853;52.186;5.948;2023-02-28T05:31:34;2.96;;;2.13;;
15502;SDS011;7853;52.186;5.948;2023-02-28T05:32:35;3.25;;;2.27;;
15502;SDS011;7853;52.186;5.948;2023-02-28T05:33:34;3.63;;;2.45;;
15502;SDS011;7853;52.186;5.948;2023-02-28T05:34:35;3.05;;;2.06;;
15502;SDS011;7853;52.186;5.948;2023-02-28T05:35:35;2.86;;;2.09;;
15502;SDS011;7853;52.186;5.948;2023-02-28T05:36:36;3.58;;;2.06;;
15502;SDS011;7853;52.186;5.948;2023-02-28T05:37:34;3.11;;;2.04;;
15502;SDS011;7853;52.186;5.948;2023-02-28T05:38:35;3.04;;;2.18;;
15502;SDS011;7853;52.186;5.948;2023-02-28T05:39:35;4.32;;;2.46;;
15502;SDS011;7853;52.186;5.948;2023-02-28T05:40:35;4.38;;;2.31;;
15502;SDS011;7853;52.186;5.948;2023-02-28T05:41:34;3.07;;;2.19;;
15502;SDS011;7853;52.186;5.948;2023-02-28T05:42:35;2.99;;;2.04;;
15502;SDS011;7853;52.186;5.948;2023-02-28T05:43:35;4.24;;;2.08;;
15502;SDS011;7853;52.186;5.948;2023-02-28T05:44:35;3.91;;;2.23;;
15502;SDS011;7853;52.186;5.948;2023-02-28T05:45:35;3.39;;;2.17;;
15502;SDS011;7853;52.186;5.948;2023-02-28T05:46:34;3.27;;;2.03;;
15502;SDS011;7853;52.186;5.948;2023-02-28T05:47:35;3.62;;;2.36;;
15502;SDS011;7853;52.186;5.948;2023-02-28T05:48:35;3.84;;;2.33;;
15502;SDS011;7853;52.186;5.948;2023-02-28T05:49:34;3.44;;;2.42;;
15502;SDS011;7853;52.186;5.948;2023-02-28T05:50:35;3.82;;;2.41;;
15502;SDS011;7853;52.186;5.948;2023-02-28T05:51:34;4.30;;;2.31;;
15502;SDS011;7853;52.186;5.948;2023-02-28T05:52:35;5.41;;;2.77;;
15502;SDS011;7853;52.186;5.948;2023-02-28T05:53:35;4.17;;;2.50;;
15502;SDS011;7853;52.186;5.948;2023-02-28T05:54:35;4.44;;;2.49;;
15502;SDS011;7853;52.186;5.948;2023-02-28T05:55:35;5.04;;;2.60;;
15502;SDS011;7853;52.186;5.948;2023-02-28T05:56:34;3.66;;;2.34;;
15502;SDS011;7853;52.186;5.948;2023-02-28T05:57:34;3.58;;;2.50;;
15502;SDS011;7853;52.186;5.948;2023-02-28T05:58:35;5.04;;;2.73;;
15502;SDS011;7853;52.186;5.948;2023-02-28T05:59:35;3.78;;;2.58;;
15502;SDS011;7853;52.186;5.948;2023-02-28T06:00:35;4.67;;;2.79;;
15502;SDS011;7853;52.186;5.948;2023-02-28T06:01:36;4.31;;;2.79;;
15502;SDS011;7853;52.186;5.948;2023-02-28T06:02:35;3.70;;;2.72;;
15502;SDS011;7853;52.186;5.948;2023-02-28T06:03:35;3.06;;;2.44;;
15502;SDS011;7853;52.186;5.948;2023-02-28T06:04:35;4.13;;;2.74;;
15502;SDS011;7853;52.186;5.948;2023-02-28T06:05:35;3.46;;;2.60;;
15502;SDS011;7853;52.186;5.948;2023-02-28T06:06:35;3.98;;;2.59;;
15502;SDS011;7853;52.186;5.948;2023-02-28T06:07:35;4.65;;;2.38;;